createdAt,value
2022-09-28T00:01:44.502Z,2.75
2022-09-28T00:04:12.088Z,2.50
2022-09-28T00:06:38.934Z,2.05
2022-09-28T00:09:05.386Z,2.20
2022-09-28T00:11:31.819Z,2.17
2022-09-28T00:14:03.269Z,1.73
2022-09-28T00:16:32.804Z,1.70
2022-09-28T00:18:59.981Z,1.58
2022-09-28T00:21:29.626Z,1.73
2022-09-28T00:24:14.783Z,1.60
2022-09-28T00:26:49.809Z,1.40
2022-09-28T00:29:23.270Z,1.33
2022-09-28T00:31:59.709Z,1.55
2022-09-28T00:34:27.280Z,1.35
2022-09-28T00:36:53.732Z,1.63
2022-09-28T00:39:20.255Z,1.63
2022-09-28T00:41:46.895Z,1.50
2022-09-28T00:44:25.119Z,1.88
2022-09-28T00:47:13.821Z,1.55
2022-09-28T00:49:49.581Z,1.58
2022-09-28T00:52:22.463Z,1.45
2022-09-28T00:54:51.639Z,1.30
2022-09-28T00:57:19.307Z,1.48
2022-09-28T00:59:45.851Z,1.20
2022-09-28T01:02:12.491Z,1.25
2022-09-28T01:04:39.290Z,1.40
2022-09-28T01:07:08.790Z,1.30
2022-09-28T01:12:03.074Z,1.30
2022-09-28T01:14:29.760Z,1.13
2022-09-28T01:17:06.853Z,1.20
2022-09-28T01:19:42.477Z,1.60
2022-09-28T01:22:25.890Z,1.67
2022-09-28T01:25:07.774Z,1.50
2022-09-28T01:27:52.033Z,1.38
2022-09-28T01:30:21.463Z,1.60
2022-09-28T01:35:27.873Z,1.92
2022-09-28T01:38:07.252Z,1.15
2022-09-28T01:40:35.766Z,1.67
2022-09-28T01:43:06.812Z,1.63
2022-09-28T01:45:41.924Z,1.35
2022-09-28T01:48:13.860Z,1.35
2022-09-28T01:50:43.521Z,1.83
2022-09-28T01:53:17.085Z,1.60
2022-09-28T01:55:47.845Z,1.33
2022-09-28T01:58:22.293Z,1.40
2022-09-28T02:00:56.355Z,1.60
2022-09-28T02:03:47.845Z,1.50
2022-09-28T02:06:26.896Z,1.52
2022-09-28T02:08:59.138Z,1.70
2022-09-28T02:11:25.654Z,1.48
2022-09-28T02:14:07.203Z,1.45
2022-09-28T02:16:41.056Z,1.77
2022-09-28T02:19:12.895Z,2.08
2022-09-28T02:21:44.567Z,1.88
2022-09-28T02:24:21.237Z,2.03
2022-09-28T02:26:51.740Z,1.88
2022-09-28T02:29:18.360Z,2.15
2022-09-28T02:31:45.053Z,2.22
2022-09-28T02:34:11.857Z,2.45
2022-09-28T02:36:38.813Z,2.40
2022-09-28T02:39:05.236Z,2.70
2022-09-28T02:42:07.856Z,3.28
2022-09-28T02:44:42.920Z,3.40
2022-09-28T02:47:36.864Z,3.75
2022-09-28T02:50:16.067Z,2.92
2022-09-28T02:53:07.983Z,3.17
2022-09-28T02:55:41.428Z,3.50
2022-09-28T02:58:37.195Z,3.90
2022-09-28T03:01:10.539Z,4.05
2022-09-28T03:03:55.656Z,3.67
2022-09-28T03:06:30.367Z,4.13
2022-09-28T03:09:03.091Z,3.70
2022-09-28T03:11:38.058Z,3.83
2022-09-28T03:14:04.973Z,3.80
2022-09-28T03:16:32.306Z,4.22
2022-09-28T03:18:58.873Z,4.30
2022-09-28T03:21:25.353Z,4.13
2022-09-28T03:23:51.768Z,4.97
2022-09-28T03:26:19.782Z,3.85
2022-09-28T03:28:46.468Z,4.35
2022-09-28T03:31:12.903Z,3.95
2022-09-28T03:33:39.372Z,5.13
2022-09-28T03:36:05.901Z,5.00
2022-09-28T03:38:32.343Z,5.47
2022-09-28T03:41:00.515Z,4.97
2022-09-28T03:43:27.940Z,5.05
2022-09-28T03:46:00.259Z,5.28
2022-09-28T03:48:32.336Z,5.03
2022-09-28T03:51:03.008Z,5.05
2022-09-28T03:53:29.784Z,5.07
2022-09-28T03:55:56.986Z,4.82
2022-09-28T03:58:23.518Z,5.47
2022-09-28T04:00:50.357Z,5.28
2022-09-28T04:03:16.820Z,5.57
2022-09-28T04:05:53.350Z,5.13
2022-09-28T04:08:20.175Z,4.88
2022-09-28T04:10:47.148Z,5.88
2022-09-28T04:13:13.708Z,5.53
2022-09-28T04:15:40.153Z,5.47
2022-09-28T04:18:11.809Z,6.15
2022-09-28T04:20:40.932Z,6.20
2022-09-28T04:23:07.505Z,6.60
2022-09-28T04:25:33.951Z,6.25
2022-09-28T04:28:19.197Z,6.35
2022-09-28T04:30:47.250Z,7.35
2022-09-28T04:33:13.820Z,6.47
2022-09-28T04:35:40.423Z,6.70
2022-09-28T04:38:06.887Z,6.10
2022-09-28T04:40:33.315Z,6.63
2022-09-28T04:42:59.765Z,7.07
2022-09-28T04:45:26.840Z,6.88
2022-09-28T04:47:53.701Z,7.57
2022-09-28T04:50:20.453Z,8.02
2022-09-28T04:52:46.974Z,7.85
2022-09-28T04:55:14.349Z,7.53
2022-09-28T04:57:41.112Z,9.00
2022-09-28T05:00:08.966Z,8.18
2022-09-28T05:02:35.440Z,7.90
2022-09-28T05:05:02.016Z,7.82
2022-09-28T05:07:29.010Z,8.05
2022-09-28T05:09:55.825Z,7.47
2022-09-28T05:12:22.283Z,7.63
2022-09-28T05:14:48.714Z,8.02
2022-09-28T05:17:15.161Z,7.68
2022-09-28T05:19:41.565Z,7.60
2022-09-28T05:22:11.306Z,7.68
2022-09-28T05:24:37.747Z,7.70
2022-09-28T05:27:04.310Z,7.35
2022-09-28T05:29:32.476Z,6.40
2022-09-28T05:32:01.478Z,6.65
2022-09-28T05:34:28.624Z,5.97
2022-09-28T05:36:55.158Z,5.57
2022-09-28T05:39:21.598Z,5.90
2022-09-28T05:41:48.150Z,6.05
2022-09-28T05:44:14.746Z,5.60
2022-09-28T05:46:41.365Z,5.28
2022-09-28T05:49:07.846Z,5.68
2022-09-28T05:51:34.269Z,5.50
2022-09-28T05:54:04.849Z,5.15
2022-09-28T05:56:32.917Z,5.28
2022-09-28T05:58:59.438Z,5.50
2022-09-28T06:01:25.978Z,5.40
2022-09-28T06:03:52.469Z,5.22
2022-09-28T06:06:18.997Z,4.60
2022-09-28T06:08:46.247Z,5.10
2022-09-28T06:11:12.737Z,4.55
2022-09-28T06:13:39.904Z,4.68
2022-09-28T06:16:08.180Z,4.82
2022-09-28T06:18:35.055Z,4.97
2022-09-28T06:21:02.731Z,5.00
2022-09-28T06:23:29.298Z,5.38
2022-09-28T06:25:55.761Z,4.68
2022-09-28T06:28:22.519Z,4.30
2022-09-28T06:30:49.015Z,4.22
2022-09-28T06:33:16.204Z,4.25
2022-09-28T06:35:42.998Z,4.50
2022-09-28T06:38:10.126Z,4.45
2022-09-28T06:40:37.256Z,3.75
2022-09-28T06:43:10.375Z,3.38
2022-09-28T06:45:38.497Z,4.00
2022-09-28T06:48:05.528Z,3.75
2022-09-28T06:50:37.214Z,3.58
2022-09-28T06:53:06.412Z,3.83
2022-09-28T06:55:33.461Z,3.80
2022-09-28T06:58:01.880Z,3.83
2022-09-28T07:00:30.966Z,3.95
2022-09-28T07:02:57.435Z,4.28
2022-09-28T07:05:27.351Z,3.60
2022-09-28T07:07:55.232Z,4.20
2022-09-28T07:10:27.626Z,3.72
2022-09-28T07:12:55.454Z,3.75
2022-09-28T07:15:22.893Z,3.83
2022-09-28T07:17:59.860Z,3.83
2022-09-28T07:20:29.182Z,3.72
2022-09-28T07:23:01.672Z,3.88
2022-09-28T07:25:35.965Z,3.58
2022-09-28T07:28:04.326Z,3.20
2022-09-28T07:30:33.967Z,3.47
2022-09-28T07:33:01.776Z,3.53
2022-09-28T07:35:28.368Z,3.40
2022-09-28T07:38:00.326Z,3.72
2022-09-28T07:40:48.403Z,3.03
2022-09-28T07:43:20.298Z,3.22
2022-09-28T07:45:52.493Z,3.38
2022-09-28T07:48:19.656Z,2.75
2022-09-28T07:50:51.702Z,2.60
2022-09-28T07:53:20.067Z,2.78
2022-09-28T07:55:54.606Z,2.90
2022-09-28T07:58:21.948Z,2.40
2022-09-28T08:00:49.945Z,2.65
2022-09-28T08:03:18.008Z,2.30
2022-09-28T08:05:46.718Z,2.30
2022-09-28T08:08:13.612Z,2.20
2022-09-28T08:10:46.509Z,3.03
2022-09-28T08:13:14.973Z,2.80
2022-09-28T08:15:42.167Z,2.90
2022-09-28T08:18:08.713Z,3.10
2022-09-28T08:20:53.866Z,2.90
2022-09-28T08:23:20.610Z,3.10
2022-09-28T08:25:51.019Z,3.22
2022-09-28T08:28:17.965Z,2.70
2022-09-28T08:30:45.560Z,2.50
2022-09-28T08:33:13.482Z,2.80
2022-09-28T08:35:41.707Z,2.53
2022-09-28T08:38:09.929Z,3.90
2022-09-28T08:40:52.812Z,3.88
2022-09-28T08:43:56.034Z,3.80
2022-09-28T08:46:28.304Z,3.70
2022-09-28T08:49:23.569Z,2.92
2022-09-28T08:52:05.666Z,3.60
2022-09-28T08:55:03.245Z,3.35
2022-09-28T08:57:45.990Z,2.88
2022-09-28T09:00:20.395Z,2.95
2022-09-28T09:02:47.963Z,2.78
2022-09-28T09:05:20.676Z,2.47
2022-09-28T09:08:11.496Z,2.40
2022-09-28T09:10:37.954Z,2.10
2022-09-28T09:13:41.769Z,2.00
2022-09-28T09:16:26.727Z,1.83
2022-09-28T09:19:33.083Z,2.47
2022-09-28T09:22:09.865Z,2.20
2022-09-28T09:24:49.141Z,1.40
2022-09-28T09:27:39.948Z,2.13
2022-09-28T09:30:13.445Z,1.60
2022-09-28T09:33:07.040Z,1.88
2022-09-28T09:36:19.282Z,2.05
2022-09-28T09:38:59.748Z,1.70
2022-09-28T09:42:00.101Z,1.60
2022-09-28T09:44:51.905Z,1.73
2022-09-28T09:47:29.141Z,2.25
2022-09-28T09:50:05.549Z,1.20
2022-09-28T09:52:57.366Z,1.20
2022-09-28T09:55:46.755Z,1.40
2022-09-28T09:58:22.532Z,1.30
2022-09-28T10:00:52.253Z,1.35
2022-09-28T10:03:23.440Z,1.13
2022-09-28T10:06:06.746Z,1.40
2022-09-28T10:08:39.548Z,1.00
2022-09-28T10:11:25.943Z,0.90
2022-09-28T10:13:52.406Z,0.80
2022-09-28T10:16:19.478Z,1.08
2022-09-28T10:18:46.132Z,1.42
2022-09-28T10:21:18.222Z,0.80
2022-09-28T10:23:46.200Z,1.00
2022-09-28T10:26:25.058Z,1.20
2022-09-28T10:28:53.880Z,1.10
2022-09-28T10:31:42.727Z,0.88
2022-09-28T10:34:17.087Z,0.95
2022-09-28T10:36:52.125Z,1.23
2022-09-28T10:39:29.309Z,1.02
2022-09-28T10:41:58.575Z,1.50
2022-09-28T10:44:26.040Z,0.70
2022-09-28T10:46:58.436Z,1.20
2022-09-28T10:49:25.921Z,1.17
2022-09-28T10:51:56.025Z,1.83
2022-09-28T10:54:25.507Z,1.40
2022-09-28T10:56:54.344Z,1.38
2022-09-28T10:59:29.867Z,1.20
2022-09-28T11:02:04.217Z,1.40
2022-09-28T11:04:39.935Z,0.98
2022-09-28T11:07:19.929Z,1.17
2022-09-28T11:09:48.922Z,1.00
2022-09-28T11:12:20.301Z,1.13
2022-09-28T11:14:52.555Z,1.00
2022-09-28T11:17:39.846Z,1.27
2022-09-28T11:20:27.464Z,1.00
2022-09-28T11:23:15.551Z,1.10
2022-09-28T11:25:42.293Z,1.30
2022-09-28T11:28:22.141Z,1.40
2022-09-28T11:30:52.839Z,1.20
2022-09-28T11:33:42.976Z,1.20
2022-09-28T11:36:16.954Z,1.27
2022-09-28T11:39:25.405Z,1.65
2022-09-28T11:42:05.687Z,1.30
2022-09-28T11:44:48.729Z,1.05
2022-09-28T11:47:26.765Z,1.05
2022-09-28T11:50:27.002Z,1.35
2022-09-28T11:53:02.340Z,1.23
2022-09-28T11:55:46.986Z,1.35
2022-09-28T11:58:37.547Z,1.05
2022-09-28T12:01:30.009Z,1.10
2022-09-28T12:04:03.613Z,1.10
2022-09-28T12:06:55.672Z,0.80
2022-09-28T12:09:30.141Z,0.90
2022-09-28T12:12:01.530Z,1.10
2022-09-28T12:14:35.654Z,0.88
2022-09-28T12:17:11.306Z,0.95
2022-09-28T12:19:50.002Z,1.52
2022-09-28T12:22:24.105Z,1.10
2022-09-28T12:24:55.460Z,1.17
2022-09-28T12:27:43.714Z,1.15
2022-09-28T12:30:16.561Z,1.00
2022-09-28T12:32:49.234Z,1.00
2022-09-28T12:35:41.234Z,1.30
2022-09-28T12:38:50.834Z,1.17
2022-09-28T12:41:41.847Z,0.90
2022-09-28T12:44:26.471Z,1.13
2022-09-28T12:47:21.296Z,1.20
2022-09-28T12:50:37.229Z,1.30
2022-09-28T12:52:57.048Z,1.33
2022-09-28T12:55:31.503Z,1.25
2022-09-28T12:57:59.795Z,1.10
2022-09-28T13:00:37.981Z,1.17
2022-09-28T13:03:31.057Z,1.10
2022-09-28T13:06:28.109Z,1.17
2022-09-28T13:09:15.253Z,1.00
2022-09-28T13:11:54.626Z,1.13
2022-09-28T13:15:08.728Z,1.30
2022-09-28T13:17:56.522Z,1.33
2022-09-28T13:20:32.029Z,1.50
2022-09-28T13:23:07.425Z,1.20
2022-09-28T13:25:36.261Z,1.65
2022-09-28T13:28:05.257Z,1.45
2022-09-28T13:30:38.937Z,1.00
2022-09-28T13:33:08.264Z,1.30
2022-09-28T13:35:35.001Z,1.10
2022-09-28T13:38:27.462Z,1.55
2022-09-28T13:41:06.063Z,0.98
2022-09-28T13:43:57.769Z,1.08
2022-09-28T13:46:47.604Z,1.10
2022-09-28T13:49:24.514Z,1.27
2022-09-28T13:51:55.254Z,0.70
2022-09-28T13:54:29.415Z,1.38
2022-09-28T13:57:10.875Z,1.40
2022-09-28T14:00:04.064Z,1.10
2022-09-28T14:02:39.708Z,1.20
2022-09-28T14:05:44.398Z,1.55
2022-09-28T14:08:34.492Z,1.30
2022-09-28T14:11:40.296Z,1.02
2022-09-28T14:14:13.858Z,1.05
2022-09-28T14:16:44.279Z,1.10
2022-09-28T14:19:24.191Z,1.17
2022-09-28T14:22:06.290Z,1.13
2022-09-28T14:24:32.650Z,1.05
2022-09-28T14:27:24.154Z,1.30
2022-09-28T14:30:17.048Z,1.73
2022-09-28T14:32:54.647Z,1.40
2022-09-28T14:35:27.183Z,1.55
2022-09-28T14:38:19.002Z,1.42
2022-09-28T14:41:11.167Z,1.45
2022-09-28T14:43:59.852Z,1.63
2022-09-28T14:46:26.285Z,1.92
2022-09-28T14:48:53.999Z,1.70
2022-09-28T14:51:26.600Z,1.80
2022-09-28T14:54:09.141Z,1.75
2022-09-28T14:56:49.604Z,1.50
2022-09-28T14:59:41.637Z,1.60
2022-09-28T15:02:11.111Z,2.08
2022-09-28T15:04:43.344Z,1.42
2022-09-28T15:07:52.344Z,1.90
2022-09-28T15:10:27.441Z,1.95
2022-09-28T15:12:55.956Z,2.05
2022-09-28T15:15:41.468Z,1.85
2022-09-28T15:18:28.334Z,1.95
2022-09-28T15:20:55.753Z,2.33
2022-09-28T15:23:36.287Z,1.90
2022-09-28T15:26:07.013Z,1.83
2022-09-28T15:28:34.629Z,1.55
2022-09-28T15:31:02.950Z,1.45
2022-09-28T15:33:54.218Z,1.50
2022-09-28T15:36:31.061Z,1.50
2022-09-28T15:39:10.485Z,2.42
2022-09-28T15:41:36.970Z,1.38
2022-09-28T15:44:12.687Z,1.70
2022-09-28T15:46:42.453Z,1.60
2022-09-28T15:49:24.519Z,1.35
2022-09-28T15:51:54.085Z,1.60
2022-09-28T15:57:02.584Z,1.30
2022-09-28T15:59:32.799Z,1.33
2022-09-28T16:02:08.455Z,1.13
2022-09-28T16:04:39.704Z,0.88
2022-09-28T16:07:28.470Z,0.90
2022-09-28T16:09:59.656Z,0.80
2022-09-28T16:12:36.706Z,1.05
2022-09-28T16:15:26.532Z,1.10
2022-09-28T16:18:18.883Z,1.13
2022-09-28T16:20:48.387Z,1.17
2022-09-28T16:26:04.235Z,1.02
2022-09-28T16:28:34.706Z,1.50
2022-09-28T16:31:22.677Z,1.23
2022-09-28T16:34:11.663Z,1.75
2022-09-28T16:36:47.590Z,0.93
2022-09-28T16:39:16.551Z,0.88
2022-09-28T16:41:55.549Z,0.90
2022-09-28T16:44:25.792Z,0.90
2022-09-28T16:46:55.234Z,0.82
2022-09-28T16:49:23.710Z,1.05
2022-09-28T16:51:50.142Z,0.93
2022-09-28T16:54:38.400Z,1.00
2022-09-28T16:57:06.635Z,1.05
2022-09-28T16:59:33.481Z,0.93
2022-09-28T17:02:00.083Z,1.02
2022-09-28T17:04:26.643Z,0.80
2022-09-28T17:06:55.456Z,0.80
2022-09-28T17:09:22.683Z,0.88
2022-09-28T17:11:55.948Z,0.90
2022-09-28T17:14:23.569Z,0.90
2022-09-28T17:17:13.770Z,1.50
2022-09-28T17:19:40.785Z,1.17
2022-09-28T17:22:09.199Z,1.08
2022-09-28T17:24:35.657Z,1.08
2022-09-28T17:27:03.235Z,1.10
2022-09-28T17:29:30.096Z,1.30
2022-09-28T17:31:56.593Z,1.20
2022-09-28T17:34:23.684Z,0.93
2022-09-28T17:36:50.181Z,1.10
2022-09-28T17:39:18.895Z,1.35
2022-09-28T17:41:45.497Z,1.40
2022-09-28T17:44:14.933Z,1.10
2022-09-28T17:46:49.059Z,1.30
2022-09-28T17:49:16.725Z,1.58
2022-09-28T17:51:43.230Z,1.20
2022-09-28T17:54:10.180Z,1.25
2022-09-28T17:56:36.634Z,0.98
2022-09-28T17:59:06.041Z,1.10
2022-09-28T18:01:34.586Z,0.98
2022-09-28T18:04:06.529Z,0.93
2022-09-28T18:06:36.950Z,1.15
2022-09-28T18:09:04.470Z,1.25
2022-09-28T18:11:32.377Z,1.00
2022-09-28T18:13:58.881Z,1.48
2022-09-28T18:16:27.707Z,1.77
2022-09-28T18:18:54.400Z,1.40
2022-09-28T18:21:20.849Z,1.55
2022-09-28T18:23:47.297Z,1.90
2022-09-28T18:26:15.145Z,1.77
2022-09-28T18:28:42.121Z,2.10
2022-09-28T18:31:13.989Z,2.90
2022-09-28T18:33:41.053Z,8.50
2022-09-28T18:36:08.263Z,6.70
2022-09-28T18:38:36.059Z,6.35
2022-09-28T18:41:10.325Z,5.18
2022-09-28T18:43:37.142Z,3.70
2022-09-28T18:46:10.979Z,3.42
2022-09-28T18:48:40.195Z,3.28
2022-09-28T18:51:11.081Z,3.58
2022-09-28T18:53:38.350Z,3.25
2022-09-28T18:56:09.635Z,3.65
2022-09-28T18:58:37.849Z,3.70
2022-09-28T19:04:06.857Z,2.20
2022-09-28T19:06:34.564Z,2.10
2022-09-28T19:09:01.969Z,1.92
2022-09-28T19:11:28.712Z,2.20
2022-09-28T19:13:55.815Z,2.38
2022-09-28T19:16:25.342Z,2.40
2022-09-28T19:21:20.073Z,2.88
2022-09-28T19:23:49.803Z,3.13
2022-09-28T19:26:22.181Z,3.40
2022-09-28T19:28:50.441Z,3.20
2022-09-28T19:31:17.625Z,2.92
2022-09-28T19:33:48.036Z,3.10
2022-09-28T19:36:23.438Z,3.35
2022-09-28T19:38:51.433Z,3.72
2022-09-28T19:41:42.833Z,4.20
2022-09-28T19:44:19.240Z,3.72
2022-09-28T19:46:45.834Z,4.55
2022-09-28T19:49:14.319Z,3.75
2022-09-28T19:52:01.678Z,3.53
2022-09-28T19:54:36.359Z,3.92
2022-09-28T19:57:07.341Z,3.38
2022-09-28T19:59:34.146Z,3.38
2022-09-28T20:02:02.008Z,3.50
2022-09-28T20:04:28.846Z,3.45
2022-09-28T20:06:55.266Z,4.20
2022-09-28T20:09:21.751Z,4.22
2022-09-28T20:11:48.478Z,3.97
2022-09-28T20:14:15.996Z,4.03
2022-09-28T20:16:42.433Z,5.30
2022-09-28T20:19:08.878Z,5.22
2022-09-28T20:21:35.437Z,5.38
2022-09-28T20:24:01.984Z,4.82
2022-09-28T20:26:28.651Z,4.40
2022-09-28T20:28:55.102Z,3.92
2022-09-28T20:31:23.892Z,4.28
2022-09-28T20:33:51.122Z,4.50
2022-09-28T20:36:20.313Z,4.60
2022-09-28T20:38:48.208Z,5.57
2022-09-28T20:41:17.873Z,5.65
2022-09-28T20:43:44.958Z,5.32
2022-09-28T20:46:12.445Z,5.45
2022-09-28T20:48:39.646Z,6.00
2022-09-28T20:51:13.308Z,5.43
2022-09-28T20:53:42.872Z,5.85
2022-09-28T20:58:50.553Z,5.55
2022-09-28T21:01:19.965Z,5.25
2022-09-28T21:03:49.813Z,4.25
2022-09-28T21:06:17.825Z,4.80
2022-09-28T21:08:45.705Z,4.43
2022-09-28T21:11:13.660Z,4.38
2022-09-28T21:13:42.733Z,4.00
2022-09-28T21:16:15.274Z,4.70
2022-09-28T21:18:42.360Z,3.63
2022-09-28T21:21:12.777Z,3.78
2022-09-28T21:23:39.767Z,3.60
2022-09-28T21:26:09.016Z,3.40
2022-09-28T21:28:36.440Z,3.65
2022-09-28T21:31:05.485Z,3.35
2022-09-28T21:33:32.040Z,3.40
2022-09-28T21:36:02.947Z,2.95
2022-09-28T21:38:30.541Z,3.30
2022-09-28T21:40:59.125Z,3.53
2022-09-28T21:43:27.276Z,3.40
2022-09-28T21:45:55.482Z,3.70
2022-09-28T21:48:23.698Z,3.33
2022-09-28T21:51:00.234Z,3.15
2022-09-28T21:53:29.604Z,3.33
2022-09-28T21:55:57.561Z,3.97
2022-09-28T21:58:26.045Z,3.47
2022-09-28T22:00:59.399Z,4.13
2022-09-28T22:03:25.848Z,3.85
2022-09-28T22:05:52.442Z,3.58
2022-09-28T22:08:19.901Z,3.67
2022-09-28T22:10:57.441Z,4.15
2022-09-28T22:13:23.951Z,4.25
2022-09-28T22:15:54.620Z,4.80
2022-09-28T22:18:21.260Z,4.95
2022-09-28T22:20:47.877Z,5.28
2022-09-28T22:23:14.402Z,4.05
2022-09-28T22:25:40.830Z,3.38
2022-09-28T22:28:07.271Z,3.70
2022-09-28T22:30:34.523Z,4.00
2022-09-28T22:33:02.310Z,3.63
2022-09-28T22:35:28.776Z,2.97
2022-09-28T22:37:55.196Z,3.13
2022-09-28T22:40:21.655Z,3.03
2022-09-28T22:42:49.453Z,3.40
2022-09-28T22:45:15.897Z,3.50
2022-09-28T22:47:42.551Z,3.72
2022-09-28T22:50:09.053Z,3.58
2022-09-28T22:52:35.514Z,3.97
2022-09-28T22:55:02.015Z,3.88
2022-09-28T22:57:29.370Z,3.78
2022-09-28T22:59:55.821Z,3.65
2022-09-28T23:02:22.322Z,3.15
2022-09-28T23:04:48.761Z,3.45
2022-09-28T23:07:15.213Z,3.08
2022-09-28T23:09:41.675Z,3.47
2022-09-28T23:12:08.145Z,3.83
2022-09-28T23:14:34.586Z,3.90
2022-09-28T23:17:01.060Z,4.82
2022-09-28T23:19:27.514Z,4.10
2022-09-28T23:21:54.434Z,3.75
2022-09-28T23:24:20.905Z,3.85
2022-09-28T23:26:47.353Z,3.67
2022-09-28T23:29:13.856Z,3.28
2022-09-28T23:31:40.557Z,3.78
2022-09-28T23:34:07.170Z,3.53
2022-09-28T23:36:34.217Z,3.50
2022-09-28T23:39:00.737Z,4.10
2022-09-28T23:41:27.348Z,3.85
2022-09-28T23:43:53.798Z,3.90
2022-09-28T23:46:21.244Z,3.55
2022-09-28T23:48:48.607Z,4.20
2022-09-28T23:51:15.041Z,3.97
2022-09-28T23:53:41.443Z,4.00
2022-09-28T23:56:08.020Z,4.63
2022-09-28T23:58:34.441Z,4.88
